Terminal Aerodrome Forecast
Issued by NWS

Home | Current Version | Previous Version | Text Only | Print | Product List | Glossary On
Versions: 1 2 3 4 5 6 7 8 9 10 11 12 13 14 15 16 17 18 19 20 21 22 23 24 25 26 27 28 29 30 31 32 33 34 35 36 37 38 39 40 41 42 43 44 45
000
FTUS45 KBOU 301932 AAA
TAFAPA
TAF AMD
KAPA 301932Z 3020/0118 15005KT P6SM SCT150
     FM302100 08006KT P6SM FEW090 SCT150
     FM302300 05007KT P6SM FEW080 SCT130 BKN220
     FM010100 34010KT P6SM VCTS SCT080CB BKN120
      TEMPO 0101/0104 VRB20G30KT
     FM010400 18007KT P6SM SCT120 BKN200
     FM011600 25005KT P6SM SCT120 BKN200=

USA.gov is the U.S. government's official web portal to all federal, state and local government web resources and services.